Time;durP1;ratioP1;P1;durP2;ratioP2;P2;SDS_P1;SDS_P2;PMS_P1;PMS_P2;Temp;Humidity;BMP_temperature;BMP_pressure;BME280_temperature;BME280_humidity;BME280_pressure;Samples;Min_cycle;Max_cycle;Signal;HPM_P1;HPM_P2
2020/12/15 00:00:17;;;;;;;58.90;44.27;;;;;;;;;;5079974;28;20389;-62
2020/12/15 00:02:43;;;;;;;59.83;45.70;;;;;;;;;;5080425;28;20040;-62
2020/12/15 00:05:09;;;;;;;56.70;44.93;;;;;;;;;;5072607;28;20189;-61
2020/12/15 00:07:35;;;;;;;60.67;46.23;;;;;;;;;;5081436;28;20032;-61
2020/12/15 00:10:01;;;;;;;55.47;44.37;;;;;;;;;;5078905;28;20489;-62
2020/12/15 00:12:27;;;;;;;54.97;43.30;;;;;;;;;;5081654;28;20066;-61
2020/12/15 00:14:53;;;;;;;59.87;45.53;;;;;;;;;;5079959;28;20028;-62
2020/12/15 00:17:19;;;;;;;59.00;45.60;;;;;;;;;;5078371;28;20436;-62
2020/12/15 00:19:45;;;;;;;64.20;46.33;;;;;;;;;;5079459;28;20028;-62
2020/12/15 00:22:11;;;;;;;55.27;44.93;;;;;;;;;;5081459;28;20029;-62
2020/12/15 00:24:38;;;;;;;56.67;44.43;;;;;;;;;;5082069;28;20081;-62
2020/12/15 00:27:04;;;;;;;68.37;47.00;;;;;;;;;;5081600;28;20123;-61
2020/12/15 00:29:30;;;;;;;64.17;47.37;;;;;;;;;;5082449;28;20020;-62
2020/12/15 00:31:56;;;;;;;60.60;46.40;;;;;;;;;;5078887;28;21174;-62
2020/12/15 00:34:22;;;;;;;58.63;43.60;;;;;;;;;;5088000;28;20035;-61
2020/12/15 00:36:48;;;;;;;54.27;43.87;;;;;;;;;;5074827;28;20040;-62
2020/12/15 00:39:14;;;;;;;53.20;44.57;;;;;;;;;;5081170;28;20020;-62
2020/12/15 00:41:41;;;;;;;52.57;43.43;;;;;;;;;;5079728;28;20077;-61
2020/12/15 00:44:07;;;;;;;59.73;44.40;;;;;;;;;;5085221;28;20122;-62
2020/12/15 00:46:33;;;;;;;54.00;41.47;;;;;;;;;;5076517;28;20040;-62
2020/12/15 00:48:59;;;;;;;54.47;43.30;;;;;;;;;;5081905;28;20028;-62
2020/12/15 00:51:25;;;;;;;58.70;42.37;;;;;;;;;;5081818;28;20050;-62
2020/12/15 00:53:51;;;;;;;52.27;42.73;;;;;;;;;;5081905;28;20389;-62
2020/12/15 00:56:17;;;;;;;56.23;44.23;;;;;;;;;;5080352;28;20024;-62
2020/12/15 00:58:43;;;;;;;52.93;42.17;;;;;;;;;;5082769;28;20558;-62
2020/12/15 01:01:10;;;;;;;57.97;43.77;;;;;;;;;;5078687;28;20028;-62
2020/12/15 01:03:36;;;;;;;53.67;42.60;;;;;;;;;;5079588;28;20189;-62
2020/12/15 01:06:02;;;;;;;56.97;43.13;;;;;;;;;;5078943;28;20538;-61
2020/12/15 01:08:28;;;;;;;54.07;41.70;;;;;;;;;;5089300;28;20027;-62
2020/12/15 01:10:54;;;;;;;55.73;42.53;;;;;;;;;;5079316;28;20035;-62
2020/12/15 01:13:20;;;;;;;56.30;42.60;;;;;;;;;;5081169;28;20024;-62
2020/12/15 01:15:49;;;;;;;54.53;42.63;;;;;;;;;;5084098;28;20111;-62
2020/12/15 01:18:15;;;;;;;55.23;43.43;;;;;;;;;;5078643;28;20770;-61
2020/12/15 01:20:41;;;;;;;51.63;42.00;;;;;;;;;;5087317;28;20073;-62
2020/12/15 01:23:07;;;;;;;56.43;42.97;;;;;;;;;;5082467;28;20065;-61
2020/12/15 01:25:33;;;;;;;56.60;42.83;;;;;;;;;;5078869;28;20036;-62
2020/12/15 01:27:59;;;;;;;53.37;42.13;;;;;;;;;;5082883;28;20028;-62
2020/12/15 01:30:25;;;;;;;52.93;42.53;;;;;;;;;;5086323;28;20147;-61
2020/12/15 01:32:51;;;;;;;55.53;41.53;;;;;;;;;;5078488;28;20028;-61
2020/12/15 01:35:18;;;;;;;52.70;42.13;;;;;;;;;;5083131;28;20024;-61
2020/12/15 01:37:45;;;;;;;51.77;42.83;;;;;;;;;;5078990;28;20048;-62
2020/12/15 01:40:11;;;;;;;58.67;43.07;;;;;;;;;;5086880;28;20031;-61
2020/12/15 01:42:37;;;;;;;56.23;43.80;;;;;;;;;;5083837;28;22744;-62
2020/12/15 01:45:04;;;;;;;57.37;45.07;;;;;;;;;;5086819;28;20028;-62
2020/12/15 01:47:30;;;;;;;56.37;44.23;;;;;;;;;;5078021;28;20111;-62
2020/12/15 01:49:56;;;;;;;58.13;44.13;;;;;;;;;;5085135;28;20067;-61
2020/12/15 01:52:22;;;;;;;51.37;42.50;;;;;;;;;;5084206;28;20024;-61
2020/12/15 01:54:50;;;;;;;53.50;44.07;;;;;;;;;;5079505;28;20031;-62
2020/12/15 01:57:17;;;;;;;49.67;43.13;;;;;;;;;;5084992;28;20036;-61
2020/12/15 01:59:43;;;;;;;52.00;43.77;;;;;;;;;;5079584;28;20043;-62
2020/12/15 02:02:09;;;;;;;54.97;45.03;;;;;;;;;;5079759;28;20047;-62
2020/12/15 02:04:35;;;;;;;54.10;44.93;;;;;;;;;;5080154;28;20092;-62
2020/12/15 02:07:01;;;;;;;56.00;46.10;;;;;;;;;;5083031;28;20111;-61
2020/12/15 02:09:28;;;;;;;57.73;47.60;;;;;;;;;;5080874;28;20119;-61
2020/12/15 02:11:54;;;;;;;55.80;44.93;;;;;;;;;;5084161;28;20055;-61
2020/12/15 02:14:20;;;;;;;56.50;47.13;;;;;;;;;;5077801;28;20063;-61
2020/12/15 02:16:49;;;;;;;59.13;48.37;;;;;;;;;;5085230;28;20035;-61
2020/12/15 02:19:16;;;;;;;55.57;46.07;;;;;;;;;;5081465;28;20488;-62
2020/12/15 02:21:51;;;;;;;63.40;48.67;;;;;;;;;;5086403;28;20028;-61
2020/12/15 02:24:17;;;;;;;57.33;46.95;;;;;;;;;;5079408;28;20043;-62
2020/12/15 02:26:43;;;;;;;54.90;44.83;;;;;;;;;;5087857;28;20408;-62
2020/12/15 02:29:09;;;;;;;53.73;45.70;;;;;;;;;;5078917;28;20070;-62
2020/12/15 02:31:35;;;;;;;57.77;46.33;;;;;;;;;;5085290;28;20091;-61
2020/12/15 02:34:01;;;;;;;54.77;42.73;;;;;;;;;;5085943;28;20110;-61
2020/12/15 02:36:28;;;;;;;54.60;45.63;;;;;;;;;;5080317;28;20103;-61
2020/12/15 02:38:54;;;;;;;55.23;45.10;;;;;;;;;;5085270;28;20127;-63
2020/12/15 02:41:21;;;;;;;55.47;45.50;;;;;;;;;;5077701;28;20021;-61
2020/12/15 02:43:47;;;;;;;58.03;47.33;;;;;;;;;;5088068;28;20040;-61
2020/12/15 02:46:13;;;;;;;54.17;45.63;;;;;;;;;;5082121;28;20028;-61
2020/12/15 02:48:39;;;;;;;51.23;45.57;;;;;;;;;;5079870;28;20074;-61
2020/12/15 02:51:09;;;;;;;54.57;46.70;;;;;;;;;;5079378;28;20044;-61
2020/12/15 02:53:35;;;;;;;57.60;47.90;;;;;;;;;;5087527;28;20050;-61
2020/12/15 02:56:01;;;;;;;54.63;45.50;;;;;;;;;;5084071;28;20074;-62
2020/12/15 02:58:27;;;;;;;60.63;47.67;;;;;;;;;;5081649;28;20039;-62
2020/12/15 03:00:53;;;;;;;58.00;46.33;;;;;;;;;;5084774;28;20119;-62
2020/12/15 03:03:19;;;;;;;57.43;48.13;;;;;;;;;;5078854;28;20448;-62
2020/12/15 03:05:45;;;;;;;57.80;46.83;;;;;;;;;;5083395;28;20035;-61
2020/12/15 03:08:11;;;;;;;58.47;46.67;;;;;;;;;;5085119;28;20051;-61
2020/12/15 03:10:37;;;;;;;57.37;46.30;;;;;;;;;;5085366;28;20477;-61
2020/12/15 03:13:03;;;;;;;59.23;46.30;;;;;;;;;;5081981;28;20032;-61
2020/12/15 03:15:29;;;;;;;54.57;44.67;;;;;;;;;;5083556;28;20028;-62
2020/12/15 03:17:55;;;;;;;56.57;46.17;;;;;;;;;;5080261;28;20466;-61
2020/12/15 03:20:21;;;;;;;55.93;46.33;;;;;;;;;;5079349;28;20100;-62
2020/12/15 03:22:47;;;;;;;55.83;45.67;;;;;;;;;;5082215;28;20031;-62
2020/12/15 03:25:19;;;;;;;57.43;45.17;;;;;;;;;;5082714;28;20032;-60
2020/12/15 03:27:45;;;;;;;55.93;47.13;;;;;;;;;;5078180;28;20040;-61
2020/12/15 03:30:11;;;;;;;60.50;46.93;;;;;;;;;;5078229;28;20020;-61
2020/12/15 03:32:37;;;;;;;63.17;47.67;;;;;;;;;;5074495;28;20039;-61
2020/12/15 03:35:03;;;;;;;64.97;51.87;;;;;;;;;;5075439;28;20031;-61
2020/12/15 03:37:29;;;;;;;71.67;52.60;;;;;;;;;;5078056;28;20036;-61
2020/12/15 03:39:55;;;;;;;72.37;56.23;;;;;;;;;;5079225;28;20031;-61
2020/12/15 03:42:21;;;;;;;66.93;53.97;;;;;;;;;;5078845;28;20035;-61
2020/12/15 03:44:47;;;;;;;69.23;53.00;;;;;;;;;;5078283;28;20040;-61
2020/12/15 03:47:13;;;;;;;69.40;54.63;;;;;;;;;;5074608;28;20066;-60
2020/12/15 03:49:40;;;;;;;69.60;54.37;;;;;;;;;;5082817;28;20497;-61
2020/12/15 03:52:06;;;;;;;72.10;55.03;;;;;;;;;;5076388;28;20025;-61
2020/12/15 03:54:32;;;;;;;74.33;57.37;;;;;;;;;;5074804;28;20522;-61
2020/12/15 03:56:58;;;;;;;68.17;55.50;;;;;;;;;;5083619;28;20028;-61
2020/12/15 03:59:24;;;;;;;76.03;58.07;;;;;;;;;;5084815;28;20057;-61
2020/12/15 04:01:50;;;;;;;70.50;56.97;;;;;;;;;;5082602;28;20166;-61
2020/12/15 04:04:16;;;;;;;75.33;57.07;;;;;;;;;;5078521;28;20073;-61
2020/12/15 04:06:42;;;;;;;75.73;58.00;;;;;;;;;;5086728;28;20044;-61
2020/12/15 04:09:08;;;;;;;75.23;58.97;;;;;;;;;;5085690;28;20482;-61
2020/12/15 04:11:34;;;;;;;75.53;57.57;;;;;;;;;;5083211;28;20093;-61
2020/12/15 04:14:00;;;;;;;79.10;58.37;;;;;;;;;;5074857;28;20464;-61
2020/12/15 04:16:26;;;;;;;70.20;56.30;;;;;;;;;;5081630;28;20027;-61
2020/12/15 04:18:52;;;;;;;78.83;58.40;;;;;;;;;;5074367;28;20025;-61
2020/12/15 04:21:18;;;;;;;73.63;57.40;;;;;;;;;;5080642;28;20497;-61
2020/12/15 04:23:45;;;;;;;72.50;56.53;;;;;;;;;;5078002;28;20127;-61
2020/12/15 04:26:11;;;;;;;73.93;59.10;;;;;;;;;;5078592;28;20024;-62
2020/12/15 04:28:37;;;;;;;76.00;60.30;;;;;;;;;;5077827;28;20021;-61
2020/12/15 04:31:03;;;;;;;75.73;58.30;;;;;;;;;;5072395;28;20025;-61
2020/12/15 04:33:29;;;;;;;77.03;58.37;;;;;;;;;;5081926;28;20124;-61
2020/12/15 04:35:55;;;;;;;73.63;57.87;;;;;;;;;;5072246;28;20065;-61
2020/12/15 04:38:21;;;;;;;76.50;60.47;;;;;;;;;;5078188;28;20044;-61
2020/12/15 04:40:47;;;;;;;76.80;58.50;;;;;;;;;;5079150;28;20889;-61
2020/12/15 04:43:14;;;;;;;76.93;57.33;;;;;;;;;;5080373;28;20110;-61
2020/12/15 04:45:40;;;;;;;72.60;56.10;;;;;;;;;;5077548;28;20175;-61
2020/12/15 04:48:08;;;;;;;74.23;56.93;;;;;;;;;;5083745;28;20464;-61
2020/12/15 04:50:35;;;;;;;73.37;56.13;;;;;;;;;;5079345;28;20043;-61
2020/12/15 04:53:03;;;;;;;74.33;59.03;;;;;;;;;;5087381;28;20050;-62
2020/12/15 04:55:30;;;;;;;71.13;56.07;;;;;;;;;;5081015;28;20050;-61
2020/12/15 04:57:59;;;;;;;68.87;55.50;;;;;;;;;;5088364;28;20028;-61
2020/12/15 05:00:25;;;;;;;71.20;55.63;;;;;;;;;;5077773;28;20033;-62
2020/12/15 05:02:52;;;;;;;74.63;56.60;;;;;;;;;;5068420;28;20531;-61
2020/12/15 05:05:19;;;;;;;74.07;57.87;;;;;;;;;;5083201;28;20043;-62
2020/12/15 05:07:46;;;;;;;75.33;58.33;;;;;;;;;;5084240;28;20389;-61
2020/12/15 05:10:13;;;;;;;71.83;56.33;;;;;;;;;;5083727;28;20131;-61
2020/12/15 05:12:40;;;;;;;72.07;55.23;;;;;;;;;;5079129;28;20134;-61
2020/12/15 05:15:09;;;;;;;73.33;58.50;;;;;;;;;;5083525;28;20027;-61
2020/12/15 05:20:51;;;;;;;71.50;55.43;;;;;;;;;;5077084;28;20043;-61
2020/12/15 05:23:21;;;;;;;74.57;54.30;;;;;;;;;;5088810;28;20042;-61
2020/12/15 05:25:47;;;;;;;72.73;56.03;;;;;;;;;;5081344;28;20037;-61
2020/12/15 05:28:14;;;;;;;69.80;54.73;;;;;;;;;;5083543;28;20043;-62
2020/12/15 05:30:40;;;;;;;68.13;49.93;;;;;;;;;;5082694;28;20031;-62
2020/12/15 05:33:16;;;;;;;64.50;49.37;;;;;;;;;;5083216;28;20024;-62
2020/12/15 05:35:43;;;;;;;67.43;50.03;;;;;;;;;;5090607;28;20072;-62
2020/12/15 05:38:09;;;;;;;65.80;49.67;;;;;;;;;;5088727;28;20126;-61
2020/12/15 05:40:35;;;;;;;67.07;49.90;;;;;;;;;;5085073;28;20028;-61
2020/12/15 05:43:03;;;;;;;64.43;49.43;;;;;;;;;;5082645;28;20028;-61
2020/12/15 05:45:32;;;;;;;61.73;47.83;;;;;;;;;;5085501;28;20397;-61
2020/12/15 05:48:02;;;;;;;67.20;48.80;;;;;;;;;;5077422;28;20504;-61
2020/12/15 05:50:28;;;;;;;65.07;48.40;;;;;;;;;;5091583;28;20088;-61
2020/12/15 05:53:14;;;;;;;64.07;50.30;;;;;;;;;;5080802;28;20032;-61
2020/12/15 05:55:40;;;;;;;67.00;50.97;;;;;;;;;;5086397;28;20059;-61
2020/12/15 05:58:07;;;;;;;63.37;49.80;;;;;;;;;;5081327;28;20044;-61
2020/12/15 06:00:33;;;;;;;63.87;49.03;;;;;;;;;;5077960;28;20459;-61
2020/12/15 06:03:03;;;;;;;61.57;48.53;;;;;;;;;;5081717;28;20413;-62
2020/12/15 06:05:36;;;;;;;67.87;49.30;;;;;;;;;;5087207;28;20397;-62
2020/12/15 06:08:03;;;;;;;63.63;47.43;;;;;;;;;;5080788;28;20021;-62
2020/12/15 06:10:33;;;;;;;68.27;49.00;;;;;;;;;;5088464;28;20028;-61
2020/12/15 06:13:00;;;;;;;61.27;46.87;;;;;;;;;;5080497;28;20021;-62
2020/12/15 06:15:27;;;;;;;67.50;47.50;;;;;;;;;;5086156;28;20159;-61
2020/12/15 06:17:54;;;;;;;62.50;48.70;;;;;;;;;;5087130;28;20039;-62
2020/12/15 06:20:20;;;;;;;71.30;52.67;;;;;;;;;;5084768;28;20031;-62
2020/12/15 06:22:54;;;;;;;62.70;49.90;;;;;;;;;;5087641;28;20178;-61
2020/12/15 06:25:35;;;;;;;69.93;53.43;;;;;;;;;;5087246;28;20039;-62
2020/12/15 06:28:08;;;;;;;73.10;54.53;;;;;;;;;;5081974;28;20119;-62
2020/12/15 06:30:35;;;;;;;71.37;54.80;;;;;;;;;;5085283;28;20055;-62
2020/12/15 06:33:03;;;;;;;72.07;54.20;;;;;;;;;;5082788;28;20016;-62
2020/12/15 06:35:29;;;;;;;70.43;54.47;;;;;;;;;;5083341;28;20165;-62
2020/12/15 06:37:55;;;;;;;71.00;55.50;;;;;;;;;;5082404;28;20032;-61
2020/12/15 06:40:21;;;;;;;72.63;56.23;;;;;;;;;;5080454;28;20486;-62
2020/12/15 06:42:51;;;;;;;70.37;56.23;;;;;;;;;;5084374;28;20142;-62
2020/12/15 06:45:20;;;;;;;74.37;56.60;;;;;;;;;;5085971;28;20032;-62
2020/12/15 06:47:55;;;;;;;78.37;57.83;;;;;;;;;;5082976;28;20473;-61
2020/12/15 06:50:21;;;;;;;69.50;55.95;;;;;;;;;;5078517;28;20441;-62
2020/12/15 06:52:47;;;;;;;75.27;58.03;;;;;;;;;;5088126;28;20032;-62
2020/12/15 06:55:13;;;;;;;73.90;59.13;;;;;;;;;;5083017;28;20144;-62
2020/12/15 06:57:40;;;;;;;76.23;57.67;;;;;;;;;;5084045;28;20078;-62
2020/12/15 07:00:10;;;;;;;72.87;56.63;;;;;;;;;;5080294;28;20036;-62
2020/12/15 07:02:37;;;;;;;72.77;56.73;;;;;;;;;;5085256;28;20071;-62
2020/12/15 07:05:12;;;;;;;74.30;55.97;;;;;;;;;;5078529;28;20040;-63
2020/12/15 07:07:46;;;;;;;70.93;55.13;;;;;;;;;;5087904;28;20028;-62
2020/12/15 07:10:13;;;;;;;72.47;58.10;;;;;;;;;;5080069;28;20086;-63
2020/12/15 07:12:41;;;;;;;75.40;58.33;;;;;;;;;;5079335;28;20115;-62
2020/12/15 07:15:07;;;;;;;75.87;57.77;;;;;;;;;;5086176;28;20112;-62
2020/12/15 07:17:33;;;;;;;71.13;57.50;;;;;;;;;;5078012;28;20031;-62
2020/12/15 07:20:01;;;;;;;70.37;56.20;;;;;;;;;;5082437;28;20030;-62
2020/12/15 07:22:27;;;;;;;73.10;57.53;;;;;;;;;;5075195;28;20032;-62
2020/12/15 07:24:53;;;;;;;70.90;56.57;;;;;;;;;;5085304;28;20519;-62
2020/12/15 07:27:19;;;;;;;71.00;55.87;;;;;;;;;;5073680;28;20028;-62
2020/12/15 07:29:55;;;;;;;71.53;57.37;;;;;;;;;;5075846;28;20028;-62
2020/12/15 07:32:21;;;;;;;69.27;55.83;;;;;;;;;;5070973;28;20517;-62
2020/12/15 07:34:47;;;;;;;74.40;55.93;;;;;;;;;;5077676;28;20039;-63
2020/12/15 07:37:20;;;;;;;76.10;57.60;;;;;;;;;;5076926;28;20036;-62
2020/12/15 07:39:47;;;;;;;67.30;55.23;;;;;;;;;;5079461;28;20036;-62
2020/12/15 07:42:13;;;;;;;66.37;53.10;;;;;;;;;;5077614;28;20032;-62
2020/12/15 07:44:39;;;;;;;66.00;52.50;;;;;;;;;;5081447;28;20032;-62
2020/12/15 07:47:05;;;;;;;69.53;56.93;;;;;;;;;;5083251;28;20020;-62
2020/12/15 07:49:31;;;;;;;66.57;52.87;;;;;;;;;;5085981;28;20393;-62
2020/12/15 07:51:57;;;;;;;69.03;54.87;;;;;;;;;;5076643;28;20512;-62
2020/12/15 07:54:23;;;;;;;66.43;53.07;;;;;;;;;;5087227;28;20030;-62
2020/12/15 07:56:52;;;;;;;70.13;55.83;;;;;;;;;;5076395;28;20028;-63
2020/12/15 07:59:19;;;;;;;64.83;51.60;;;;;;;;;;5080126;28;20032;-62
2020/12/15 08:01:45;;;;;;;61.47;50.63;;;;;;;;;;5082775;28;20020;-63
2020/12/15 08:04:12;;;;;;;60.27;49.37;;;;;;;;;;5071522;28;20042;-62
2020/12/15 08:06:46;;;;;;;63.90;47.50;;;;;;;;;;5078285;28;20316;-62
2020/12/15 08:09:14;;;;;;;59.83;45.07;;;;;;;;;;5076347;28;20032;-63
2020/12/15 08:11:50;;;;;;;59.67;44.87;;;;;;;;;;5083095;28;20273;-63
2020/12/15 08:14:17;;;;;;;51.53;42.10;;;;;;;;;;5075673;28;20506;-62
2020/12/15 08:16:43;;;;;;;56.43;43.17;;;;;;;;;;5078490;28;20127;-61
2020/12/15 08:19:10;;;;;;;51.30;40.37;;;;;;;;;;5072173;28;20101;-62
2020/12/15 08:21:45;;;;;;;46.27;36.90;;;;;;;;;;5076157;28;20508;-62
2020/12/15 08:24:12;;;;;;;46.73;36.47;;;;;;;;;;5072756;28;20120;-61
2020/12/15 08:26:39;;;;;;;43.67;35.00;;;;;;;;;;5074815;28;20385;-62
2020/12/15 08:29:10;;;;;;;44.13;36.07;;;;;;;;;;5071937;28;20028;-62
2020/12/15 08:31:36;;;;;;;46.40;33.70;;;;;;;;;;5079767;28;20028;-62
2020/12/15 08:34:09;;;;;;;46.60;36.63;;;;;;;;;;5076531;28;20390;-59
2020/12/15 08:36:41;;;;;;;48.03;38.27;;;;;;;;;;5080232;28;20664;-62
2020/12/15 08:39:07;;;;;;;50.73;40.80;;;;;;;;;;5072859;28;20024;-62
2020/12/15 08:41:33;;;;;;;53.13;42.17;;;;;;;;;;5082199;28;20389;-62
2020/12/15 08:43:59;;;;;;;52.63;40.50;;;;;;;;;;5081893;28;20035;-62
2020/12/15 08:46:25;;;;;;;47.67;40.20;;;;;;;;;;5080462;28;20148;-62
2020/12/15 08:48:51;;;;;;;55.97;42.80;;;;;;;;;;5080768;28;20024;-62
2020/12/15 08:51:17;;;;;;;60.20;43.67;;;;;;;;;;5080811;28;20107;-62
2020/12/15 08:53:45;;;;;;;54.93;41.87;;;;;;;;;;5080785;28;20032;-62
2020/12/15 08:59:19;;;;;;;46.33;38.77;;;;;;;;;;5076073;28;20070;-62
2020/12/15 09:01:45;;;;;;;48.10;37.87;;;;;;;;;;5085196;28;20104;-62
2020/12/15 09:04:12;;;;;;;44.20;36.50;;;;;;;;;;5078749;28;20041;-62
2020/12/15 09:06:38;;;;;;;48.47;36.07;;;;;;;;;;5082242;28;20039;-62
2020/12/15 09:09:08;;;;;;;43.80;33.70;;;;;;;;;;5080714;28;20065;-62
2020/12/15 09:11:35;;;;;;;42.80;33.23;;;;;;;;;;5077585;28;20032;-62
2020/12/15 09:14:02;;;;;;;45.67;35.40;;;;;;;;;;5082017;28;20033;-62
2020/12/15 09:16:32;;;;;;;52.37;38.67;;;;;;;;;;5078240;28;20039;-62
2020/12/15 09:18:58;;;;;;;52.03;40.70;;;;;;;;;;5082128;28;20382;-62
2020/12/15 09:21:24;;;;;;;47.43;37.57;;;;;;;;;;5078558;28;20103;-62
2020/12/15 09:23:54;;;;;;;45.00;37.30;;;;;;;;;;5086758;28;20073;-63
2020/12/15 09:26:21;;;;;;;49.03;37.23;;;;;;;;;;5076703;28;20116;-62
2020/12/15 09:28:47;;;;;;;44.07;37.30;;;;;;;;;;5082733;28;20024;-61
2020/12/15 09:31:14;;;;;;;45.00;34.67;;;;;;;;;;5082911;28;20031;-63
2020/12/15 09:33:40;;;;;;;43.47;34.27;;;;;;;;;;5080662;28;20024;-63
2020/12/15 09:36:07;;;;;;;49.17;36.93;;;;;;;;;;5077566;28;20063;-63
2020/12/15 09:38:33;;;;;;;42.13;34.87;;;;;;;;;;5088627;28;20032;-63
2020/12/15 09:40:59;;;;;;;44.00;35.57;;;;;;;;;;5077883;28;20039;-63
2020/12/15 09:43:25;;;;;;;41.03;34.20;;;;;;;;;;5091766;28;20165;-63
2020/12/15 09:45:51;;;;;;;42.17;34.17;;;;;;;;;;5084747;28;20472;-63
2020/12/15 09:48:17;;;;;;;40.80;33.50;;;;;;;;;;5084357;28;20490;-63
2020/12/15 09:50:44;;;;;;;41.67;32.77;;;;;;;;;;5091816;28;20059;-63
2020/12/15 09:53:10;;;;;;;38.20;34.07;;;;;;;;;;5085383;28;20166;-63
2020/12/15 09:55:36;;;;;;;40.30;33.97;;;;;;;;;;5083415;28;20028;-63
2020/12/15 09:58:02;;;;;;;39.40;31.80;;;;;;;;;;5073969;28;20151;-63
2020/12/15 10:00:28;;;;;;;39.30;31.80;;;;;;;;;;5077032;28;20028;-63
2020/12/15 10:02:54;;;;;;;40.07;33.80;;;;;;;;;;5081188;28;20045;-63
2020/12/15 10:05:20;;;;;;;41.20;34.87;;;;;;;;;;5083593;28;20184;-63
2020/12/15 10:07:46;;;;;;;40.23;34.63;;;;;;;;;;5077562;28;20081;-63
2020/12/15 10:10:16;;;;;;;40.87;33.90;;;;;;;;;;5080053;28;20089;-63
2020/12/15 10:12:42;;;;;;;38.73;32.70;;;;;;;;;;5081447;28;20032;-63
2020/12/15 10:15:10;;;;;;;43.17;33.77;;;;;;;;;;5078498;28;20032;-63
2020/12/15 10:17:36;;;;;;;37.60;31.37;;;;;;;;;;5082619;28;20034;-63
2020/12/15 10:20:02;;;;;;;36.97;31.83;;;;;;;;;;5084181;28;20024;-63
2020/12/15 10:22:28;;;;;;;35.83;29.93;;;;;;;;;;5081055;28;20425;-63
2020/12/15 10:24:54;;;;;;;36.10;29.30;;;;;;;;;;5080752;28;20033;-63
2020/12/15 10:27:20;;;;;;;33.17;29.57;;;;;;;;;;5084051;28;20437;-63
2020/12/15 10:29:46;;;;;;;37.37;30.13;;;;;;;;;;5080465;28;20027;-63
2020/12/15 10:32:12;;;;;;;36.40;30.73;;;;;;;;;;5084491;28;20088;-63
2020/12/15 10:34:38;;;;;;;40.00;30.80;;;;;;;;;;5075382;28;20036;-63
2020/12/15 10:37:04;;;;;;;36.47;30.77;;;;;;;;;;5080240;28;20405;-63
2020/12/15 10:39:30;;;;;;;35.60;30.83;;;;;;;;;;5081115;28;20024;-63
2020/12/15 10:41:56;;;;;;;39.17;31.50;;;;;;;;;;5083442;28;20462;-63
2020/12/15 10:44:22;;;;;;;38.87;32.33;;;;;;;;;;5076830;28;20036;-63
2020/12/15 10:46:50;;;;;;;43.77;32.10;;;;;;;;;;5083045;28;20032;-63
2020/12/15 10:49:17;;;;;;;37.33;30.88;;;;;;;;;;5078703;28;20024;-63
2020/12/15 10:51:43;;;;;;;38.45;31.05;;;;;;;;;;5079446;28;20125;-63
2020/12/15 10:54:09;;;;;;;34.80;28.83;;;;;;;;;;5078501;28;20031;-63
2020/12/15 10:56:35;;;;;;;30.50;25.73;;;;;;;;;;5077034;28;20611;-63
2020/12/15 10:59:01;;;;;;;25.47;22.40;;;;;;;;;;5076410;28;20100;-63
2020/12/15 11:01:28;;;;;;;24.40;21.80;;;;;;;;;;5086287;28;20149;-63
2020/12/15 11:03:55;;;;;;;26.73;21.00;;;;;;;;;;5081787;28;20523;-63
2020/12/15 11:06:23;;;;;;;24.40;20.53;;;;;;;;;;5077354;28;20031;-63
2020/12/15 11:08:49;;;;;;;24.50;20.90;;;;;;;;;;5089001;28;20020;-63
2020/12/15 11:11:15;;;;;;;22.08;19.63;;;;;;;;;;5077976;28;20031;-63
2020/12/15 11:13:41;;;;;;;24.80;19.43;;;;;;;;;;5081907;28;20021;-64
2020/12/15 11:16:08;;;;;;;22.30;19.57;;;;;;;;;;5081596;28;20034;-64
2020/12/15 11:18:34;;;;;;;22.53;19.70;;;;;;;;;;5082003;28;20386;-64
2020/12/15 11:21:00;;;;;;;22.33;18.93;;;;;;;;;;5073720;28;20028;-64
2020/12/15 11:23:26;;;;;;;21.85;19.48;;;;;;;;;;5081931;28;20024;-63
2020/12/15 11:25:52;;;;;;;23.50;18.47;;;;;;;;;;5081608;28;20097;-64
2020/12/15 11:28:19;;;;;;;21.30;19.10;;;;;;;;;;5080461;28;20036;-64
2020/12/15 11:30:45;;;;;;;21.90;18.83;;;;;;;;;;5076985;28;20036;-63
2020/12/15 11:33:11;;;;;;;20.45;17.45;;;;;;;;;;5079669;28;20501;-63
2020/12/15 11:35:37;;;;;;;18.63;16.63;;;;;;;;;;5081063;28;20036;-64
2020/12/15 11:38:04;;;;;;;20.05;16.70;;;;;;;;;;5080698;28;20024;-63
2020/12/15 11:40:30;;;;;;;19.40;16.05;;;;;;;;;;5081480;28;20028;-63
2020/12/15 11:42:57;;;;;;;19.50;16.45;;;;;;;;;;5078019;28;20059;-63
2020/12/15 11:45:23;;;;;;;20.38;15.32;;;;;;;;;;5080125;28;20036;-64
2020/12/15 11:47:50;;;;;;;19.08;16.17;;;;;;;;;;5080356;28;20047;-64
2020/12/15 11:50:16;;;;;;;19.98;15.70;;;;;;;;;;5079473;28;20024;-64
2020/12/15 11:52:42;;;;;;;19.27;15.82;;;;;;;;;;5073453;28;20027;-63
2020/12/15 11:55:08;;;;;;;18.08;15.93;;;;;;;;;;5077710;28;20016;-64
2020/12/15 11:57:34;;;;;;;19.38;16.38;;;;;;;;;;5074808;28;20033;-64
2020/12/15 12:00:04;;;;;;;18.33;16.13;;;;;;;;;;5083875;28;20035;-64
2020/12/15 12:02:30;;;;;;;19.95;16.52;;;;;;;;;;5076208;28;20064;-64
2020/12/15 12:04:56;;;;;;;18.08;16.13;;;;;;;;;;5087101;28;20036;-64
2020/12/15 12:07:22;;;;;;;18.93;16.13;;;;;;;;;;5077349;28;20081;-64
2020/12/15 12:09:48;;;;;;;18.88;16.27;;;;;;;;;;5080884;28;20381;-63
2020/12/15 12:12:14;;;;;;;21.33;16.52;;;;;;;;;;5081061;28;20062;-63
2020/12/15 12:14:40;;;;;;;19.33;16.02;;;;;;;;;;5084813;28;20040;-62
2020/12/15 12:17:06;;;;;;;16.83;13.80;;;;;;;;;;5079829;28;20031;-62
2020/12/15 12:19:32;;;;;;;17.08;15.30;;;;;;;;;;5084747;28;20393;-62
2020/12/15 12:22:04;;;;;;;17.93;15.60;;;;;;;;;;5089668;28;20031;-62
2020/12/15 12:24:30;;;;;;;22.38;16.20;;;;;;;;;;5081588;28;20036;-64
2020/12/15 12:26:57;;;;;;;18.27;15.10;;;;;;;;;;5083030;28;20073;-62
2020/12/15 12:29:24;;;;;;;19.65;15.63;;;;;;;;;;5076424;28;20539;-62
2020/12/15 12:31:50;;;;;;;20.88;16.02;;;;;;;;;;5087789;28;20024;-62
2020/12/15 12:34:16;;;;;;;17.40;15.45;;;;;;;;;;5085207;28;20478;-62
2020/12/15 12:36:42;;;;;;;20.98;15.95;;;;;;;;;;5088714;28;20028;-62
2020/12/15 12:39:09;;;;;;;18.50;16.50;;;;;;;;;;5078220;28;20024;-62
2020/12/15 12:41:35;;;;;;;20.38;16.60;;;;;;;;;;5073078;28;20422;-62
2020/12/15 12:44:01;;;;;;;24.85;18.85;;;;;;;;;;5074813;28;20052;-62
2020/12/15 12:46:27;;;;;;;27.25;18.63;;;;;;;;;;5085542;28;20029;-62
2020/12/15 12:48:53;;;;;;;19.73;17.63;;;;;;;;;;5082030;28;20492;-62
2020/12/15 12:51:20;;;;;;;25.15;18.70;;;;;;;;;;5087607;28;20544;-62
2020/12/15 12:53:46;;;;;;;22.65;18.45;;;;;;;;;;5081989;28;20056;-62
2020/12/15 12:56:12;;;;;;;26.03;20.40;;;;;;;;;;5086764;28;20028;-62
2020/12/15 12:58:39;;;;;;;28.07;20.03;;;;;;;;;;5078989;28;20033;-63
2020/12/15 13:01:05;;;;;;;23.43;20.87;;;;;;;;;;5080708;28;20031;-63
2020/12/15 13:03:50;;;;;;;26.27;19.60;;;;;;;;;;5074673;28;20538;-63
2020/12/15 13:06:16;;;;;;;23.60;18.27;;;;;;;;;;5081373;28;20051;-63
2020/12/15 13:08:43;;;;;;;24.38;20.50;;;;;;;;;;5079790;28;20115;-62
2020/12/15 13:11:09;;;;;;;25.08;19.63;;;;;;;;;;5081524;28;20082;-62
2020/12/15 13:13:35;;;;;;;23.90;19.00;;;;;;;;;;5082820;28;20031;-63
2020/12/15 13:16:01;;;;;;;24.83;20.00;;;;;;;;;;5088827;28;20066;-63
2020/12/15 13:18:27;;;;;;;27.35;20.35;;;;;;;;;;5094529;28;20027;-63
2020/12/15 13:20:53;;;;;;;21.98;19.30;;;;;;;;;;5085041;28;20024;-63
2020/12/15 13:23:20;;;;;;;32.28;21.40;;;;;;;;;;5083513;28;20035;-63
2020/12/15 13:25:46;;;;;;;33.13;21.58;;;;;;;;;;5078821;28;20086;-63
2020/12/15 13:28:12;;;;;;;23.38;19.65;;;;;;;;;;5086418;28;20024;-63
2020/12/15 13:30:38;;;;;;;25.55;21.48;;;;;;;;;;5083240;28;20024;-63
2020/12/15 13:33:04;;;;;;;23.63;20.77;;;;;;;;;;5091186;28;20051;-63
2020/12/15 13:35:30;;;;;;;28.63;22.23;;;;;;;;;;5082719;28;20544;-63
2020/12/15 13:37:56;;;;;;;25.42;22.10;;;;;;;;;;5083166;28;20032;-63
2020/12/15 13:40:22;;;;;;;25.02;22.20;;;;;;;;;;5084834;28;20035;-63
2020/12/15 13:42:48;;;;;;;24.47;21.43;;;;;;;;;;5081006;28;20024;-63
2020/12/15 13:45:14;;;;;;;29.05;23.00;;;;;;;;;;5082330;28;20516;-63
2020/12/15 13:47:40;;;;;;;25.02;22.08;;;;;;;;;;5090502;28;20035;-62
2020/12/15 13:50:06;;;;;;;27.43;22.73;;;;;;;;;;5080813;28;20452;-62
2020/12/15 13:52:32;;;;;;;24.50;21.63;;;;;;;;;;5081551;28;20020;-62
2020/12/15 13:54:59;;;;;;;26.77;23.15;;;;;;;;;;5082158;28;20115;-63
2020/12/15 13:57:25;;;;;;;24.52;21.45;;;;;;;;;;5077199;28;20028;-63
2020/12/15 13:59:51;;;;;;;28.48;21.08;;;;;;;;;;5082947;28;20039;-63
2020/12/15 14:02:17;;;;;;;24.88;21.80;;;;;;;;;;5078994;28;20059;-63
2020/12/15 14:04:43;;;;;;;28.50;20.52;;;;;;;;;;5084015;28;20512;-62
2020/12/15 14:07:09;;;;;;;21.58;18.42;;;;;;;;;;5075528;28;20017;-62
2020/12/15 14:09:35;;;;;;;22.80;17.15;;;;;;;;;;5084505;28;20021;-63
2020/12/15 14:12:01;;;;;;;19.73;15.73;;;;;;;;;;5074503;28;20470;-63
2020/12/15 14:14:27;;;;;;;19.65;16.63;;;;;;;;;;5081118;28;20118;-63
2020/12/15 14:16:54;;;;;;;19.48;16.65;;;;;;;;;;5079847;28;20032;-63
2020/12/15 14:19:20;;;;;;;21.58;15.77;;;;;;;;;;5081859;28;20285;-63